Time;durP1;ratioP1;P1;durP2;ratioP2;P2;SDS_P1;SDS_P2;PMS_P1;PMS_P2;Temp;Humidity;BMP_temperature;BMP_pressure;BME280_temperature;BME280_humidity;BME280_pressure;Samples;Min_cycle;Max_cycle;Signal;HPM_P1;HPM_P2
2022/09/06 06:47:01;;;;;;;8.65;4.10;;;;;;;16.21;100.00;93354.81;2092071;28;20052;-72
2022/09/06 06:48:02;;;;;;;10.30;4.97;;;;;;;16.39;100.00;93349.44;2072757;28;20072;-72
2022/09/06 06:49:03;;;;;;;9.13;4.32;;;;;;;16.48;100.00;93346.00;2073411;28;20032;-73
2022/09/06 06:50:05;;;;;;;8.77;4.80;;;;;;;16.58;100.00;93353.66;2073068;28;20040;-73
2022/09/06 06:55:37;;;;;;;5.93;3.95;;;;;;;16.75;100.00;93358.81;2070779;28;20065;-74
2022/09/06 06:56:44;;;;;;;9.68;3.40;;;;;;;16.76;100.00;93350.25;2056113;28;20524;-74
2022/09/06 06:57:46;;;;;;;6.00;4.20;;;;;;;16.79;100.00;93351.31;2062073;28;20026;-75
2022/09/06 06:58:50;;;;;;;5.22;3.85;;;;;;;16.78;100.00;93352.53;2062352;28;20156;-75
2022/09/06 06:59:51;;;;;;;5.43;4.43;;;;;;;16.75;100.00;93345.31;2063058;28;20137;-73
2022/09/06 07:00:59;;;;;;;6.13;3.83;;;;;;;16.75;100.00;93348.75;2076479;28;20037;-76
2022/09/06 07:02:01;;;;;;;5.50;3.97;;;;;;;16.78;100.00;93344.41;2072581;28;20041;-75
2022/09/06 07:03:02;;;;;;;7.03;3.95;;;;;;;16.80;100.00;93350.13;2074741;28;20029;-74
2022/09/06 07:04:04;;;;;;;6.45;4.05;;;;;;;16.73;100.00;93353.88;2073562;28;20660;-74
2022/09/06 07:05:05;;;;;;;6.85;3.90;;;;;;;16.78;100.00;93349.81;2066091;28;20026;-74
2022/09/06 07:06:07;;;;;;;6.85;4.15;;;;;;;16.88;100.00;93351.31;2066267;28;20038;-76
2022/09/06 07:07:12;;;;;;;7.47;4.03;;;;;;;16.85;100.00;93349.50;2070936;28;20853;-75
2022/09/06 07:08:13;;;;;;;10.88;4.95;;;;;;;16.94;100.00;93352.22;2072441;28;20475;-75
2022/09/06 07:09:15;;;;;;;7.57;4.40;;;;;;;16.98;100.00;93352.06;2072772;28;20037;-75
2022/09/06 07:10:16;;;;;;;9.38;5.10;;;;;;;17.02;100.00;93348.00;2065221;28;20038;-75
2022/09/06 07:11:18;;;;;;;10.65;4.47;;;;;;;17.08;100.00;93345.47;2067403;28;20653;-75
2022/09/06 07:12:19;;;;;;;11.02;4.95;;;;;;;17.17;100.00;93348.16;2074469;28;20112;-76
2022/09/06 07:13:20;;;;;;;8.85;4.68;;;;;;;17.20;100.00;93354.59;2066187;28;20034;-75
2022/09/06 07:14:21;;;;;;;13.25;4.85;;;;;;;17.24;100.00;93350.53;2063473;28;20026;-75
2022/09/06 07:15:22;;;;;;;7.40;4.45;;;;;;;17.25;100.00;93354.00;2074809;28;20029;-75
2022/09/06 07:16:23;;;;;;;10.40;4.78;;;;;;;17.30;100.00;93351.44;2074876;28;20040;-74
2022/09/06 07:17:24;;;;;;;8.35;4.43;;;;;;;17.44;100.00;93354.72;2072854;28;20054;-75
2022/09/06 07:18:25;;;;;;;13.52;4.63;;;;;;;17.43;100.00;93355.91;2074923;28;20467;-74
2022/09/06 07:19:26;;;;;;;9.23;4.72;;;;;;;17.65;100.00;93345.66;2068245;28;20026;-75
2022/09/06 07:20:27;;;;;;;8.73;4.95;;;;;;;17.61;100.00;93348.53;2074850;28;20044;-75
2022/09/06 07:21:28;;;;;;;12.43;5.00;;;;;;;17.58;100.00;93351.38;2068018;28;20025;-75
2022/09/06 07:22:29;;;;;;;15.20;4.65;;;;;;;17.54;100.00;93354.25;2065999;28;20685;-75
2022/09/06 07:23:30;;;;;;;10.27;4.38;;;;;;;17.83;100.00;93344.88;2074801;28;20034;-75
2022/09/06 07:24:31;;;;;;;7.90;4.15;;;;;;;17.76;100.00;93348.66;2073989;28;20096;-74
2022/09/06 07:25:32;;;;;;;8.18;4.60;;;;;;;17.86;100.00;93350.09;2074606;28;20033;-74
2022/09/06 07:26:34;;;;;;;14.38;4.88;;;;;;;17.87;100.00;93348.19;2074997;28;20037;-75
2022/09/06 07:27:35;;;;;;;11.70;4.90;;;;;;;17.80;100.00;93351.94;2075085;28;20083;-74
2022/09/06 07:28:36;;;;;;;8.27;4.38;;;;;;;17.89;100.00;93353.88;2075346;28;20037;-75
2022/09/06 07:29:37;;;;;;;17.63;5.03;;;;;;;17.94;100.00;93347.09;2077799;28;20029;-75
2022/09/06 07:30:38;;;;;;;10.88;4.72;;;;;;;18.07;100.00;93348.38;2079365;28;20025;-75
2022/09/06 07:31:39;;;;;;;8.48;4.57;;;;;;;18.08;100.00;93341.75;2066741;28;20400;-74
2022/09/06 07:32:40;;;;;;;10.73;4.18;;;;;;;18.23;100.00;93346.50;2058511;28;20170;-75
2022/09/06 07:33:41;;;;;;;8.95;4.72;;;;;;;18.30;100.00;93346.91;2054773;28;20461;-73
2022/09/06 07:34:42;;;;;;;9.95;3.80;;;;;;;18.23;100.00;93341.84;2059916;28;20854;-77
2022/09/06 07:35:54;;;;;;;10.40;4.50;;;;;;;18.20;100.00;93344.72;2079684;28;20026;-75
2022/09/06 07:36:55;;;;;;;7.43;4.50;;;;;;;18.09;100.00;93345.97;2076096;28;20452;-74
2022/09/06 07:37:57;;;;;;;9.68;4.50;;;;;;;18.12;100.00;93341.59;2075701;28;20030;-75
2022/09/06 07:38:58;;;;;;;8.63;4.50;;;;;;;18.21;100.00;93338.09;2074871;28;20068;-76
2022/09/06 07:39:59;;;;;;;11.25;4.03;;;;;;;18.35;100.00;93342.84;2073627;28;20042;-74
2022/09/06 07:41:04;;;;;;;12.95;4.53;;;;;;;18.33;100.00;93348.69;2075129;28;20411;-76
2022/09/06 07:42:05;;;;;;;9.88;4.50;;;;;;;18.33;100.00;93348.69;2075099;28;20030;-74
2022/09/06 07:43:06;;;;;;;9.15;3.97;;;;;;;18.49;100.00;93347.56;2070809;28;20088;-75
2022/09/06 07:44:10;;;;;;;10.43;4.53;;;;;;;18.63;100.00;93355.00;2070983;28;20431;-75
2022/09/06 07:45:24;;;;;;;7.65;4.57;;;;;;;18.61;100.00;93357.44;2068830;28;20042;-74
2022/09/06 07:46:48;;;;;;;8.48;3.90;;;;;;;18.59;100.00;93361.78;2064696;28;20041;-76
2022/09/06 07:48:11;;;;;;;10.52;4.78;;;;;;;18.76;100.00;93351.34;2055054;28;20043;-75
2022/09/06 07:49:12;;;;;;;8.63;4.45;;;;;;;18.85;100.00;93364.81;2075436;28;20136;-74
2022/09/06 07:50:13;;;;;;;11.32;4.40;;;;;;;18.83;100.00;93365.28;2068004;28;20026;-75
2022/09/06 07:51:17;;;;;;;7.22;4.45;;;;;;;18.91;100.00;93362.94;2071162;28;20030;-74
2022/09/06 07:52:18;;;;;;;8.35;4.25;;;;;;;18.95;100.00;93360.81;2081316;28;20037;-75
2022/09/06 07:53:19;;;;;;;10.95;4.30;;;;;;;18.91;100.00;93362.19;2082548;28;20025;-74
2022/09/06 07:54:21;;;;;;;9.85;3.95;;;;;;;18.88;100.00;93361.19;2082613;28;20025;-75
2022/09/06 07:55:22;;;;;;;8.90;4.20;;;;;;;18.95;100.00;93368.19;2081274;28;20708;-77
2022/09/06 07:56:23;;;;;;;7.22;4.43;;;;;;;18.98;100.00;93356.44;2086324;28;20029;-75
2022/09/06 07:57:24;;;;;;;8.57;4.25;;;;;;;19.01;100.00;93358.22;2082858;28;20029;-74
2022/09/06 07:58:27;;;;;;;11.00;4.13;;;;;;;18.96;100.00;93351.47;2085083;28;20544;-75
2022/09/06 07:59:28;;;;;;;7.88;4.03;;;;;;;19.00;100.00;93359.41;2078874;28;20029;-75
2022/09/06 08:00:30;;;;;;;9.38;4.25;;;;;;;19.01;100.00;93350.84;2081958;28;20013;-76
2022/09/06 08:01:33;;;;;;;12.02;4.63;;;;;;;19.07;100.00;93348.97;2082402;28;20530;-74
2022/09/06 08:02:34;;;;;;;11.23;4.20;;;;;;;19.06;100.00;93350.19;2073336;28;20040;-75
2022/09/06 08:03:35;;;;;;;7.28;4.43;;;;;;;19.16;100.00;93352.81;2073264;28;20052;-75
2022/09/06 08:04:37;;;;;;;11.75;4.05;;;;;;;19.26;100.00;93346.84;2072948;28;20127;-74
2022/09/06 08:05:39;;;;;;;12.05;4.28;;;;;;;19.32;100.00;93346.97;2078581;28;20043;-77
2022/09/06 08:06:43;;;;;;;10.65;4.13;;;;;;;19.38;100.00;93345.84;2085814;28;20033;-76
2022/09/06 08:07:44;;;;;;;10.38;3.75;;;;;;;19.38;100.00;93345.84;2070201;28;20114;-75
2022/09/06 08:08:45;;;;;;;10.82;3.90;;;;;;;19.48;100.00;93348.47;2073756;28;20052;-75
2022/09/06 08:09:46;;;;;;;11.95;4.10;;;;;;;19.50;100.00;93348.75;2082745;28;20082;-76
2022/09/06 08:10:55;;;;;;;10.10;4.00;;;;;;;19.57;100.00;93348.38;2081652;28;20045;-76
2022/09/06 08:11:56;;;;;;;10.33;3.87;;;;;;;19.64;100.00;93352.72;2081996;28;20040;-75
2022/09/06 08:12:57;;;;;;;8.82;4.43;;;;;;;19.96;100.00;93349.03;2082570;28;20114;-75
2022/09/06 08:13:59;;;;;;;7.93;3.95;;;;;;;19.98;100.00;93349.31;2080751;28;20120;-75
2022/09/06 08:15:03;;;;;;;8.77;3.92;;;;;;;20.13;100.00;93341.13;2081954;28;20220;-75
2022/09/06 08:16:07;;;;;;;10.18;4.07;;;;;;;20.21;100.00;93344.22;2082656;28;20506;-76
2022/09/06 08:17:08;;;;;;;21.15;4.22;;;;;;;20.31;100.00;93338.19;2078397;28;20017;-74
2022/09/06 08:18:09;;;;;;;9.35;4.10;;;;;;;20.38;100.00;93343.22;2086414;28;20028;-75
2022/09/06 08:19:11;;;;;;;7.72;4.00;;;;;;;20.46;100.00;93349.00;2082539;28;20025;-76
2022/09/06 08:20:12;;;;;;;10.52;4.35;;;;;;;20.41;100.00;93348.91;2078525;28;20033;-76
2022/09/06 08:21:15;;;;;;;11.45;3.83;;;;;;;20.38;100.00;93345.94;2077775;28;20037;-76
2022/09/06 08:22:15;;;;;;;6.53;3.55;;;;;;;20.54;100.00;93341.97;2078728;28;20037;-75
2022/09/06 08:23:16;;;;;;;7.18;3.25;;;;;;;20.49;100.00;93342.66;2075284;28;20033;-75
2022/09/06 08:24:17;;;;;;;8.98;4.05;;;;;;;20.52;100.00;93343.69;2077095;28;20181;-73
2022/09/06 08:25:18;;;;;;;7.10;3.65;;;;;;;20.54;100.00;93339.25;2082483;28;20047;-74
2022/09/06 08:26:21;;;;;;;11.93;4.38;;;;;;;20.51;100.00;93342.94;2079104;28;20036;-72
2022/09/06 08:27:22;;;;;;;13.00;4.25;;;;;;;20.41;100.00;93344.22;2079607;28;20036;-73
2022/09/06 08:28:23;;;;;;;10.02;4.38;;;;;;;20.46;100.00;93342.84;2073469;28;20913;-73
2022/09/06 08:29:26;;;;;;;12.32;4.28;;;;;;;20.41;100.00;93346.19;2074337;28;20042;-73
2022/09/06 08:30:28;;;;;;;15.88;3.88;;;;;;;20.35;100.00;93348.84;2083367;28;20107;-74
2022/09/06 08:31:31;;;;;;;11.27;4.03;;;;;;;20.40;100.00;93350.88;2081352;28;20029;-73
2022/09/06 08:32:35;;;;;;;6.55;3.70;;;;;;;20.53;100.00;93353.31;2081888;28;20040;-73
2022/09/06 08:33:37;;;;;;;7.30;4.10;;;;;;;20.52;100.00;93346.41;2078849;28;20033;-74
2022/09/06 08:34:38;;;;;;;10.50;4.10;;;;;;;20.55;100.00;93348.16;2081093;28;20033;-74
2022/09/06 08:35:39;;;;;;;14.65;3.97;;;;;;;20.47;100.00;93345.06;2082674;28;20037;-74
2022/09/06 08:36:41;;;;;;;15.23;9.60;;;;;;;20.60;100.00;93358.34;2074800;28;20037;-72
2022/09/06 08:37:42;;;;;;;13.10;4.75;;;;;;;20.60;100.00;93353.66;2075908;28;20124;-73
2022/09/06 08:38:44;;;;;;;17.48;4.43;;;;;;;20.70;100.00;93359.72;2081793;28;20471;-73
2022/09/06 08:39:45;;;;;;;13.60;4.10;;;;;;;20.67;100.00;93354.47;2074785;28;20113;-73
2022/09/06 08:40:46;;;;;;;9.45;3.97;;;;;;;20.61;100.00;93368.72;2084727;28;20853;-74
2022/09/06 08:41:59;;;;;;;11.43;4.57;;;;;;;20.58;100.00;93358.81;2069737;28;20043;-73
2022/09/06 08:43:00;;;;;;;11.43;3.53;;;;;;;20.51;100.00;93369.34;2075285;28;20120;-75
2022/09/06 08:44:31;;;;;;;10.70;4.00;;;;;;;20.52;100.00;93360.72;2080286;28;20037;-73
2022/09/06 08:45:32;;;;;;;8.57;4.10;;;;;;;20.38;100.00;93369.63;2078669;28;20083;-74
2022/09/06 08:46:40;;;;;;;9.00;4.25;;;;;;;20.44;100.00;93373.16;2083335;28;20455;-72
2022/09/06 08:47:49;;;;;;;10.63;3.97;;;;;;;20.38;100.00;93361.50;2074781;28;20041;-73
2022/09/06 08:48:50;;;;;;;11.55;4.10;;;;;;;20.31;100.00;93375.44;2073452;28;20095;-73
2022/09/06 08:49:59;;;;;;;8.00;3.95;;;;;;;20.27;100.00;93374.88;2074252;28;20030;-74
2022/09/06 08:51:26;;;;;;;10.13;4.05;;;;;;;20.33;100.00;93378.44;2078281;28;20096;-72
2022/09/06 08:52:55;;;;;;;9.00;3.88;;;;;;;20.20;100.00;93380.72;2080310;28;20033;-73
2022/09/06 08:54:03;;;;;;;6.05;3.72;;;;;;;20.31;100.00;93389.75;2080812;28;20076;-73
2022/09/06 08:55:16;;;;;;;14.25;3.67;;;;;;;20.19;100.00;93390.06;2082304;28;20040;-74
2022/09/06 08:56:24;;;;;;;10.90;3.30;;;;;;;20.23;100.00;93393.34;2079453;28;20037;-74
2022/09/06 08:57:57;;;;;;;6.95;2.97;;;;;;;20.28;100.00;93398.09;2082847;28;20491;-73
2022/09/06 08:59:12;;;;;;;12.57;3.03;;;;;;;20.31;100.00;93397.16;2081134;28;20044;-73
2022/09/06 09:00:13;;;;;;;12.60;3.03;;;;;;;20.15;100.00;93392.22;2078853;28;20071;-74
2022/09/06 09:01:18;;;;;;;8.27;3.00;;;;;;;20.04;100.00;93393.56;2084876;28;20021;-73
2022/09/06 09:02:20;;;;;;;12.10;3.30;;;;;;;19.97;100.00;93393.94;2079264;28;20017;-73
2022/09/06 09:03:25;;;;;;;9.23;3.50;;;;;;;19.87;100.00;93395.25;2077559;28;20032;-73
2022/09/06 09:04:29;;;;;;;7.90;3.47;;;;;;;19.92;100.00;93405.44;2081963;28;20053;-73
2022/09/06 09:05:33;;;;;;;12.90;3.40;;;;;;;19.82;100.00;93401.34;2080928;28;20030;-73
2022/09/06 09:06:34;;;;;;;11.25;2.95;;;;;;;19.72;100.00;93389.09;2074769;28;20041;-73
2022/09/06 09:07:45;;;;;;;15.13;3.40;;;;;;;19.67;100.00;93395.91;2075848;28;20379;-74
2022/09/06 09:09:00;;;;;;;11.15;3.30;;;;;;;19.73;100.00;93401.44;2075072;28;20107;-73
2022/09/06 09:10:20;;;;;;;10.82;3.38;;;;;;;19.61;100.00;93397.78;2077316;28;20036;-75
2022/09/06 09:11:22;;;;;;;;;;;;;;;19.65;100.00;93395.63;2076954;28;20034;-73
2022/09/06 09:12:25;;;;;;;9.00;2.85;;;;;;;19.73;100.00;93396.00;2077070;28;19920;-74
2022/09/06 09:13:33;;;;;;;10.68;2.92;;;;;;;20.00;100.00;93393.00;2077687;28;20108;-72
2022/09/06 09:14:38;;;;;;;10.52;2.75;;;;;;;19.90;100.00;93401.72;2078461;28;20048;-73
2022/09/06 09:15:40;;;;;;;8.70;2.83;;;;;;;19.93;100.00;93404.25;2075952;28;20068;-73
2022/09/06 09:16:41;;;;;;;8.95;3.22;;;;;;;19.88;100.00;93404.88;2066414;28;20038;-73
2022/09/06 09:17:44;;;;;;;13.35;2.88;;;;;;;19.91;100.00;93403.22;2064033;28;20026;-73
2022/09/06 09:18:49;;;;;;;14.65;3.00;;;;;;;19.73;100.00;93406.84;2081681;28;20083;-73
2022/09/06 09:19:50;;;;;;;11.70;3.20;;;;;;;19.66;100.00;93391.69;2079779;28;20041;-72
2022/09/06 09:20:57;;;;;;;8.07;2.63;;;;;;;19.56;100.00;93399.16;2082701;28;20073;-73
2022/09/06 09:21:58;;;;;;;10.52;2.72;;;;;;;19.53;100.00;93388.47;2082706;28;20033;-72
2022/09/06 09:23:00;;;;;;;11.43;3.83;;;;;;;19.45;100.00;93387.34;2082486;28;20033;-73
2022/09/06 09:24:10;;;;;;;11.57;2.70;;;;;;;19.38;100.00;93386.50;2081526;28;20057;-73
2022/09/06 09:25:22;;;;;;;;;;;;;;;19.51;100.00;93377.38;2078886;28;20082;-75
2022/09/06 09:26:38;;;;;;;13.82;2.90;;;;;;;19.55;100.00;93386.06;2082079;28;20864;-72
2022/09/06 09:27:40;;;;;;;8.20;2.90;;;;;;;19.42;100.00;93386.31;2082629;28;20026;-72
2022/09/06 09:29:02;;;;;;;10.82;3.03;;;;;;;19.36;100.00;93382.78;2074427;28;20033;-73
2022/09/06 09:30:05;;;;;;;13.05;3.28;;;;;;;19.69;100.00;93387.31;2082954;28;20376;-73
2022/09/06 09:31:08;;;;;;;12.48;3.03;;;;;;;19.60;100.00;93382.69;2082314;28;20029;-74
2022/09/06 09:32:09;;;;;;;10.90;3.13;;;;;;;19.49;100.00;93375.13;2082720;28;20040;-73
2022/09/06 09:33:31;;;;;;;13.15;3.10;;;;;;;19.41;100.00;93373.25;2082530;28;20382;-74
2022/09/06 09:34:34;;;;;;;11.25;2.95;;;;;;;19.22;100.00;93383.47;2084356;28;20192;-74
2022/09/06 09:35:39;;;;;;;11.23;3.28;;;;;;;19.14;100.00;93380.41;2079918;28;20023;-73
2022/09/06 09:36:40;;;;;;;12.82;3.20;;;;;;;19.10;100.00;93377.88;2082391;28;20144;-73
2022/09/06 09:37:41;;;;;;;13.20;3.28;;;;;;;19.12;100.00;93374.69;2078601;28;20459;-72
2022/09/06 09:38:44;;;;;;;10.98;2.83;;;;;;;19.09;100.00;93381.78;2082372;28;20041;-73
2022/09/06 09:39:47;;;;;;;14.10;3.30;;;;;;;19.05;100.00;93370.38;2082827;28;20048;-74
2022/09/06 09:40:57;;;;;;;10.80;3.00;;;;;;;18.95;100.00;93371.66;2082750;28;20031;-73
2022/09/06 09:41:57;;;;;;;;;;;;;;;18.92;100.00;93360.97;2083353;28;20033;-74
2022/09/06 09:43:18;;;;;;;13.82;2.85;;;;;;;18.88;100.00;93361.19;2082480;28;19959;-73
2022/09/06 09:44:19;;;;;;;12.07;3.83;;;;;;;18.86;100.00;93364.34;2079421;28;20029;-73
2022/09/06 09:45:29;;;;;;;13.10;3.47;;;;;;;18.86;100.00;93363.59;2081596;28;20078;-73
2022/09/06 09:46:35;;;;;;;12.90;2.83;;;;;;;18.91;100.00;93364.91;2082560;28;20115;-73
2022/09/06 09:47:36;;;;;;;8.88;2.95;;;;;;;18.78;100.00;93363.19;2082105;28;20121;-73
2022/09/06 09:48:39;;;;;;;8.02;3.33;;;;;;;18.70;100.00;93362.06;2082302;28;20060;-74
2022/09/06 09:49:40;;;;;;;13.48;2.92;;;;;;;18.68;100.00;93366.41;2082766;28;20463;-73
2022/09/06 09:50:40;;;;;;;9.15;2.80;;;;;;;18.68;100.00;93363.69;2081545;28;20033;-73
2022/09/06 09:51:45;;;;;;;9.57;2.90;;;;;;;18.60;100.00;93363.28;2078336;28;20036;-73
2022/09/06 09:52:45;;;;;;;12.32;3.25;;;;;;;18.57;100.00;93364.97;2082455;28;20099;-72
2022/09/06 09:54:01;;;;;;;9.15;3.30;;;;;;;18.51;100.00;93366.78;2082639;28;20102;-73
2022/09/06 09:55:04;;;;;;;8.13;2.72;;;;;;;18.50;100.00;93364.56;2081255;28;20037;-73
2022/09/06 09:56:06;;;;;;;10.10;3.13;;;;;;;18.54;100.00;93363.19;2081270;28;20114;-73
2022/09/06 09:57:18;;;;;;;9.52;2.80;;;;;;;18.56;100.00;93357.28;2082454;28;20112;-73
2022/09/06 09:58:24;;;;;;;8.75;3.15;;;;;;;18.58;100.00;93358.34;2079255;28;20029;-73
2022/09/06 09:59:27;;;;;;;14.32;3.20;;;;;;;18.58;100.00;93361.03;2082019;28;20489;-73
2022/09/06 10:00:40;;;;;;;16.45;2.83;;;;;;;18.61;100.00;93354.72;2073427;28;20039;-73
2022/09/06 10:01:41;;;;;;;11.30;3.08;;;;;;;18.65;100.00;93353.78;2071824;28;20695;-73
2022/09/06 10:02:42;;;;;;;11.13;2.58;;;;;;;18.81;100.00;93356.84;2082129;28;20039;-72
2022/09/06 10:03:43;;;;;;;12.38;2.95;;;;;;;18.90;100.00;93358.00;2082434;28;20455;-73
2022/09/06 10:04:48;;;;;;;13.32;3.20;;;;;;;18.99;100.00;93355.22;2082331;28;20121;-73
2022/09/06 10:05:59;;;;;;;13.45;3.08;;;;;;;19.19;100.00;93354.63;2082071;28;20183;-73
2022/09/06 10:07:09;;;;;;;7.53;2.75;;;;;;;19.27;100.00;93351.06;2081752;28;20037;-73
2022/09/06 10:08:12;;;;;;;8.75;2.88;;;;;;;19.40;100.00;93350.03;2078335;28;20494;-73
2022/09/06 10:09:17;;;;;;;7.82;2.65;;;;;;;19.36;100.00;93350.25;2082382;28;20352;-73
2022/09/06 10:10:27;;;;;;;9.65;3.05;;;;;;;19.37;100.00;93349.03;2082483;28;20538;-74
2022/09/06 10:11:40;;;;;;;8.10;2.67;;;;;;;19.27;100.00;93344.88;2079874;28;20039;-75
2022/09/06 10:12:41;;;;;;;7.38;2.80;;;;;;;19.49;100.00;93337.16;2082091;28;20033;-74
2022/09/06 10:13:45;;;;;;;12.65;2.63;;;;;;;19.67;100.00;93332.78;2070623;28;20923;-74
2022/09/06 10:14:48;;;;;;;10.95;2.58;;;;;;;19.82;100.00;93333.53;2073980;28;20026;-72
2022/09/06 10:15:51;;;;;;;9.45;2.65;;;;;;;19.80;100.00;93338.69;2080090;28;20030;-75
2022/09/06 10:16:52;;;;;;;10.32;3.10;;;;;;;19.80;100.00;93335.97;2079625;28;20528;-75
2022/09/06 10:17:54;;;;;;;10.50;2.90;;;;;;;19.92;100.00;93323.31;2085233;28;20029;-73
2022/09/06 10:18:55;;;;;;;6.20;2.22;;;;;;;20.09;100.00;93327.75;2081938;28;20511;-74
2022/09/06 10:20:00;;;;;;;8.70;2.92;;;;;;;20.07;100.00;93321.31;2081333;28;20038;-74
2022/09/06 10:21:05;;;;;;;10.25;2.67;;;;;;;20.19;100.00;93324.91;2074975;28;20028;-73
2022/09/06 10:22:18;;;;;;;9.60;2.97;;;;;;;20.11;100.00;93322.63;2080215;28;20029;-73
2022/09/06 10:23:30;;;;;;;8.23;2.83;;;;;;;19.98;100.00;93322.19;2074127;28;20034;-73
2022/09/06 10:24:53;;;;;;;7.07;2.63;;;;;;;20.03;100.00;93320.78;2080649;28;20852;-73
2022/09/06 10:26:29;;;;;;;13.75;3.35;;;;;;;20.28;100.00;93308.50;2072891;28;20033;-74
2022/09/06 10:27:32;;;;;;;8.70;3.10;;;;;;;20.17;100.00;93314.53;2078769;28;20507;-73
2022/09/06 10:28:40;;;;;;;11.50;3.50;;;;;;;20.09;100.00;93321.59;2080420;28;20036;-74
2022/09/06 10:29:54;;;;;;;9.48;3.05;;;;;;;20.07;100.00;93313.19;2077972;28;20037;-72
2022/09/06 10:31:05;;;;;;;9.45;2.80;;;;;;;20.07;100.00;93318.59;2079751;28;20476;-72
2022/09/06 10:32:24;;;;;;;7.35;2.83;;;;;;;19.97;100.00;93319.91;2079950;28;20033;-73
2022/09/06 10:34:00;;;;;;;10.18;2.90;;;;;;;19.95;100.00;93316.94;2079610;28;20139;-71
2022/09/06 10:35:09;;;;;;;10.25;3.05;;;;;;;20.09;100.00;93308.75;2080695;28;20037;-73
2022/09/06 10:36:12;;;;;;;13.60;3.45;;;;;;;20.26;100.00;93308.25;2081799;28;20059;-73
2022/09/06 10:37:22;;;;;;;8.63;3.15;;;;;;;20.09;100.00;93299.88;2079478;28;20040;-72
2022/09/06 10:38:31;;;;;;;13.00;3.55;;;;;;;20.05;100.00;93300.06;2071860;28;20523;-73
2022/09/06 10:39:41;;;;;;;11.15;3.70;;;;;;;19.94;100.00;93299.19;2075733;28;20716;-73
2022/09/06 10:41:05;;;;;;;7.20;2.97;;;;;;;19.99;100.00;93298.50;2075253;28;20090;-72
2022/09/06 10:42:25;;;;;;;8.52;2.97;;;;;;;20.00;100.00;93302.72;2082859;28;20033;-73
2022/09/06 10:43:53;;;;;;;8.32;3.28;;;;;;;20.25;100.00;93304.78;2085310;28;20036;-73
2022/09/06 10:45:06;;;;;;;7.93;2.70;;;;;;;20.52;100.00;93298.25;2081186;28;20048;-72
2022/09/06 10:46:14;;;;;;;10.88;2.50;;;;;;;20.62;100.00;93307.75;2083580;28;20029;-73
2022/09/06 10:47:17;;;;;;;8.35;2.72;;;;;;;20.79;100.00;93309.94;2084100;28;20115;-73
2022/09/06 10:48:28;;;;;;;7.35;3.28;;;;;;;20.91;100.00;93306.13;2085008;28;20106;-73
2022/09/06 10:49:32;;;;;;;7.28;2.35;;;;;;;20.87;100.00;93300.88;2081995;28;20048;-73
2022/09/06 10:50:59;;;;;;;6.53;2.25;;;;;;;20.69;100.00;93305.88;2082778;28;20044;-73
2022/09/06 10:52:03;;;;;;;5.45;2.33;;;;;;;20.98;100.00;93302.97;2081747;28;20116;-73
2022/09/06 10:53:11;;;;;;;10.00;2.83;;;;;;;21.05;100.00;93304.53;2079189;28;20486;-73
2022/09/06 10:54:17;;;;;;;8.93;2.72;;;;;;;21.10;100.00;93296.44;2079246;28;20032;-73
2022/09/06 10:55:19;;;;;;;6.00;2.58;;;;;;;21.09;100.00;93305.06;2080229;28;20060;-73
2022/09/06 10:56:50;;;;;;;7.43;2.33;;;;;;;21.18;100.00;93304.91;2086478;28;20028;-72
2022/09/06 10:57:56;;;;;;;10.60;2.55;;;;;;;21.31;100.00;93299.09;2081405;28;20028;-72
2022/09/06 10:59:21;;;;;;;4.10;2.17;;;;;;;21.35;100.00;93296.94;2083637;28;20037;-75
2022/09/06 11:00:23;;;;;;;9.07;2.50;;;;;;;21.39;100.00;93291.28;2082682;28;20060;-73
2022/09/06 11:01:36;;;;;;;7.10;2.67;;;;;;;21.51;100.00;93292.88;2084169;28;20033;-73
2022/09/06 11:02:56;;;;;;;7.18;2.80;;;;;;;21.63;100.00;93294.47;2083875;28;20033;-73
2022/09/06 11:03:58;;;;;;;9.23;2.50;;;;;;;21.69;100.00;93294.53;2082911;28;20375;-72
2022/09/06 11:05:07;;;;;;;7.35;2.50;;;;;;;21.61;100.00;93299.66;2074776;28;20429;-72
2022/09/06 11:06:10;;;;;;;9.90;3.00;;;;;;;21.48;100.00;93300.03;2075884;28;20053;-72
2022/09/06 11:07:27;;;;;;;7.93;2.78;;;;;;;21.55;100.00;93296.13;2082312;28;20034;-73
2022/09/06 11:08:49;;;;;;;7.47;3.03;;;;;;;21.50;100.00;93289.41;2076977;28;20112;-73
2022/09/06 11:10:03;;;;;;;7.53;2.80;;;;;;;21.59;100.00;93291.22;2074107;28;20367;-72
2022/09/06 11:11:17;;;;;;;8.98;2.95;;;;;;;21.91;100.00;93291.22;2074872;28;20534;-72
2022/09/06 11:12:45;;;;;;;8.82;2.70;;;;;;;21.95;100.00;93291.72;2074481;28;20030;-72
2022/09/06 11:13:46;;;;;;;7.10;2.42;;;;;;;21.90;100.00;93290.44;2073971;28;20123;-71
2022/09/06 11:14:47;;;;;;;5.10;2.25;;;;;;;22.02;100.00;93292.03;2076857;28;20744;-73
2022/09/06 11:16:28;;;;;;;7.15;2.80;;;;;;;21.97;100.00;93286.53;2075047;28;20037;-71
2022/09/06 11:17:43;;;;;;;7.35;2.60;;;;;;;22.24;100.00;93277.09;2062152;28;20045;-72
2022/09/06 11:18:54;;;;;;;6.43;2.50;;;;;;;22.00;100.00;93283.59;2074151;28;20588;-74
2022/09/06 11:20:05;;;;;;;6.28;2.58;;;;;;;22.08;100.00;93284.66;2075990;28;20478;-74
2022/09/06 11:21:36;;;;;;;8.13;2.90;;;;;;;22.22;100.00;93283.03;2076481;28;20033;-73
2022/09/06 11:23:10;;;;;;;5.20;2.60;;;;;;;22.38;100.00;93287.06;2078529;28;20243;-72
2022/09/06 11:24:14;;;;;;;6.40;3.10;;;;;;;22.38;100.00;93287.78;2071870;28;20030;-74
2022/09/06 11:25:25;;;;;;;8.63;3.10;;;;;;;22.36;100.00;93284.09;2078329;28;20401;-72
2022/09/06 11:26:33;;;;;;;6.45;2.88;;;;;;;22.46;100.00;93284.63;2077613;28;20025;-72
2022/09/06 11:27:39;;;;;;;6.13;3.03;;;;;;;22.49;100.00;93286.38;2077782;28;20041;-74
2022/09/06 11:28:52;;;;;;;7.65;2.65;;;;;;;22.56;100.00;93283.94;2077515;28;20041;-74
2022/09/06 11:29:55;;;;;;;6.13;2.88;;;;;;;22.55;100.00;93289.88;2074682;28;20066;-72
2022/09/06 11:30:57;;;;;;;5.32;2.42;;;;;;;22.53;100.00;93286.91;2070779;28;20030;-74
2022/09/06 11:32:00;;;;;;;5.90;2.83;;;;;;;22.63;100.00;93297.09;2076468;28;20065;-72
2022/09/06 11:33:38;;;;;;;5.32;2.50;;;;;;;22.70;100.00;93293.16;2084748;28;20036;-74
2022/09/06 11:34:42;;;;;;;5.50;2.28;;;;;;;22.78;100.00;93298.88;2084730;28;20091;-72
2022/09/06 11:35:44;;;;;;;4.30;2.13;;;;;;;22.66;100.00;93294.63;2081026;28;20040;-73
2022/09/06 11:36:56;;;;;;;6.72;2.10;;;;;;;22.63;100.00;93299.81;2085235;28;20375;-72
2022/09/06 11:38:19;;;;;;;5.97;2.20;;;;;;;22.60;100.00;93292.59;2087444;28;20037;-71
2022/09/06 11:39:31;;;;;;;5.53;2.15;;;;;;;22.53;100.00;93298.53;2083421;28;20028;-72
2022/09/06 11:40:37;;;;;;;8.32;2.40;;;;;;;22.49;100.00;93297.28;2085157;28;20049;-74
2022/09/06 11:41:41;;;;;;;11.23;2.08;;;;;;;22.49;100.00;93297.28;2085117;28;20124;-72
2022/09/06 11:42:45;;;;;;;4.78;1.80;;;;;;;22.43;100.00;93294.50;2072178;28;20041;-72
2022/09/06 11:43:52;;;;;;;6.65;2.53;;;;;;;22.46;99.25;93298.25;2076640;28;20033;-71
2022/09/06 11:45:12;;;;;;;5.43;1.90;;;;;;;22.59;100.00;93298.56;2086761;28;20027;-75
2022/09/06 11:46:31;;;;;;;4.57;2.20;;;;;;;22.69;100.00;93309.97;2079561;28;20033;-75
2022/09/06 11:47:36;;;;;;;2.83;1.77;;;;;;;22.74;100.00;93301.84;2082958;28;20060;-72
2022/09/06 11:49:00;;;;;;;4.32;2.13;;;;;;;22.76;100.00;93304.06;2078901;28;20502;-75
2022/09/06 11:50:20;;;;;;;5.68;2.10;;;;;;;22.81;100.00;93308.78;2083858;28;20046;-73
2022/09/06 11:51:34;;;;;;;6.50;1.80;;;;;;;22.77;100.00;93311.00;2081645;28;20029;-72
2022/09/06 11:52:54;;;;;;;6.40;1.80;;;;;;;22.89;100.00;93304.38;2084856;28;20175;-75
2022/09/06 11:54:02;;;;;;;6.00;2.25;;;;;;;22.80;100.00;93307.31;2082662;28;20086;-72
2022/09/06 11:55:08;;;;;;;5.45;1.90;;;;;;;22.72;95.25;93300.84;2084498;28;20041;-72
2022/09/06 11:56:21;;;;;;;4.55;1.90;;;;;;;22.86;92.76;93299.88;2077837;28;20028;-74
2022/09/06 11:57:25;;;;;;;5.10;1.95;;;;;;;22.96;94.60;93303.16;2084200;28;20029;-75
2022/09/06 11:58:31;;;;;;;4.35;1.75;;;;;;;22.99;98.93;93304.91;2080520;28;20123;-74
2022/09/06 11:59:44;;;;;;;6.35;2.30;;;;;;;23.08;90.97;93301.97;2084751;28;20033;-72
2022/09/06 12:01:11;;;;;;;5.28;2.10;;;;;;;23.05;97.12;93303.72;2081191;28;20095;-73